Falls International Airport


Codes: KINL/INL
Name: Falls International Airport
City: International Falls
Country: United States
Elevation: 1185 ft.
Wikipedia:

Photos at Falls International Airport


   Photos courtesy of SpottingLog. You can add your own sightings and photos by signing up for a free trial today.



No photos found.

Weather at Falls International Airport


Time (UTC)DescriptionTempratureWindCloud coverageVisibilityPressureHumidity
25-Jun-2024 21:00Few Clouds22°C16 mph, NW19%10000m1006hPa53%
26-Jun-2024 00:00Light Rain21°C11 mph, NW25%10000m1006hPa59%
26-Jun-2024 03:00Light Rain17°C4 mph, NW24%10000m1008hPa82%
26-Jun-2024 06:00Light Rain12°C7 mph, NE46%10000m1011hPa96%
26-Jun-2024 09:00Light Rain12°C7 mph, NE90%10000m1013hPa94%
26-Jun-2024 12:00Overcast Clouds12°C4 mph, NE93%10000m1015hPa89%
26-Jun-2024 15:00Overcast Clouds12°C4 mph, NE99%10000m1016hPa83%
26-Jun-2024 18:00Light Rain16°C4 mph, NW91%10000m1016hPa67%
26-Jun-2024 21:00Light Rain17°C7 mph, NW94%10000m1015hPa62%
27-Jun-2024 00:00Broken Clouds18°C4 mph, NW80%10000m1014hPa52%
27-Jun-2024 03:00Scattered Clouds12°C4 mph, NW30%10000m1015hPa80%
27-Jun-2024 06:00Few Clouds10°C4 mph, W19%10000m1016hPa86%
27-Jun-2024 09:00Clear Sky8°C4 mph, W3%10000m1016hPa91%
27-Jun-2024 12:00Clear Sky11°C0 mph, NW6%10000m1016hPa77%
27-Jun-2024 15:00Broken Clouds17°C4 mph, SE55%10000m1014hPa53%
27-Jun-2024 18:00Broken Clouds20°C4 mph, SE77%10000m1011hPa44%
27-Jun-2024 21:00Overcast Clouds21°C7 mph, S95%10000m1008hPa44%
28-Jun-2024 00:00Light Rain14°C2 mph, SE97%10000m1007hPa95%
28-Jun-2024 03:00Heavy Intensity Rain14°C13 mph, E100%1311m1005hPa99%
28-Jun-2024 06:00Heavy Intensity Rain12°C11 mph, SE100%10000m1004hPa98%
28-Jun-2024 09:00Moderate Rain12°C9 mph, N100%0m1000hPa99%
28-Jun-2024 12:00Moderate Rain16°C7 mph, N100%4564m997hPa99%
28-Jun-2024 15:00Moderate Rain16°C9 mph, S100%10000m996hPa99%
28-Jun-2024 18:00Light Rain16°C0 mph, SW100%2751m996hPa99%
28-Jun-2024 21:00Light Rain14°C9 mph, N100%0m996hPa99%
29-Jun-2024 00:00Light Rain12°C7 mph, NE100%1244m997hPa99%
29-Jun-2024 03:00Light Rain12°C4 mph, NE99%3412m999hPa99%
29-Jun-2024 06:00Light Rain11°C7 mph, NE100%806m999hPa99%
29-Jun-2024 09:00Light Rain10°C11 mph, NE100%10000m1001hPa98%
29-Jun-2024 12:00Light Rain7°C16 mph, N100%10000m1007hPa96%
29-Jun-2024 15:00Light Rain7°C13 mph, N100%10000m1014hPa96%
29-Jun-2024 18:00Light Rain8°C9 mph, N100%10000m1018hPa93%
29-Jun-2024 21:00Overcast Clouds17°C11 mph, N100%10000m1017hPa38%
30-Jun-2024 00:00Overcast Clouds15°C9 mph, NW100%10000m1020hPa51%
30-Jun-2024 03:00Few Clouds9°C4 mph, W15%10000m1023hPa73%
30-Jun-2024 06:00Clear Sky7°C7 mph, NW8%10000m1024hPa79%
30-Jun-2024 09:00Clear Sky6°C4 mph, W3%10000m1026hPa90%
30-Jun-2024 12:00Clear Sky9°C2 mph, W3%10000m1027hPa78%
30-Jun-2024 15:00Clear Sky16°C2 mph, W2%10000m1026hPa53%
30-Jun-2024 18:00Clear Sky19°C2 mph, SE5%10000m1025hPa39%